createdAt,value
2018-03-25T00:01:34.907Z,73.70
2018-03-25T00:04:03.311Z,73.70
2018-03-25T00:06:31.488Z,74.10
2018-03-25T00:08:59.758Z,74.20
2018-03-25T00:11:27.221Z,74.20
2018-03-25T00:13:56.159Z,74.60
2018-03-25T00:16:24.280Z,74.60
2018-03-25T00:18:52.170Z,75.00
2018-03-25T00:21:20.735Z,74.70
2018-03-25T00:23:48.199Z,75.00
2018-03-25T00:26:16.429Z,74.60
2018-03-25T00:28:43.898Z,74.70
2018-03-25T00:31:11.358Z,74.80
2018-03-25T00:33:38.826Z,75.10
2018-03-25T00:36:06.298Z,75.70
2018-03-25T00:38:34.919Z,75.50
2018-03-25T00:41:03.151Z,75.20
2018-03-25T00:43:31.943Z,75.20
2018-03-25T00:45:59.512Z,75.10
2018-03-25T00:48:27.130Z,76.00
2018-03-25T00:50:54.579Z,75.40
2018-03-25T00:53:23.142Z,75.70
2018-03-25T00:55:51.378Z,76.00
2018-03-25T00:58:18.957Z,75.90
2018-03-25T01:00:46.415Z,75.90
2018-03-25T01:03:13.921Z,76.30
2018-03-25T01:05:41.682Z,76.60
2018-03-25T01:08:09.198Z,76.40
2018-03-25T01:10:36.665Z,76.40
2018-03-25T01:13:04.894Z,76.20
2018-03-25T01:15:44.326Z,76.10
2018-03-25T01:18:11.790Z,76.20
2018-03-25T01:20:39.250Z,76.80
2018-03-25T01:23:06.710Z,77.00
2018-03-25T01:25:34.603Z,77.40
2018-03-25T01:28:02.169Z,77.10
2018-03-25T01:30:30.339Z,76.00
2018-03-25T01:32:57.814Z,77.50
2018-03-25T01:35:26.136Z,76.90
2018-03-25T01:37:53.598Z,76.20
2018-03-25T01:40:21.701Z,75.40
2018-03-25T01:42:49.170Z,75.40
2018-03-25T01:45:16.637Z,75.50
2018-03-25T01:47:44.094Z,75.80
2018-03-25T01:50:12.323Z,75.80
2018-03-25T01:52:39.838Z,75.80
2018-03-25T01:55:08.055Z,76.10
2018-03-25T01:57:36.341Z,76.00
2018-03-25T02:00:03.906Z,76.20
2018-03-25T02:02:31.395Z,76.20
2018-03-25T02:04:59.458Z,76.20
2018-03-25T02:07:27.534Z,76.30
2018-03-25T02:09:55.197Z,76.00
2018-03-25T02:12:23.171Z,76.10
2018-03-25T02:14:51.363Z,76.10
2018-03-25T02:17:19.590Z,76.30
2018-03-25T02:19:47.054Z,76.00
2018-03-25T02:22:14.530Z,76.00
2018-03-25T02:24:41.990Z,76.20
2018-03-25T02:27:09.549Z,76.30
2018-03-25T02:29:37.723Z,76.50
2018-03-25T02:32:05.622Z,76.60
2018-03-25T02:34:34.183Z,76.40
2018-03-25T02:37:01.643Z,76.40
2018-03-25T02:39:30.055Z,76.40
2018-03-25T02:41:57.484Z,76.50
2018-03-25T02:44:25.036Z,76.70
2018-03-25T02:46:52.498Z,76.90
2018-03-25T02:49:19.957Z,76.70
2018-03-25T02:51:48.027Z,76.60
2018-03-25T02:54:15.586Z,76.60
2018-03-25T02:56:43.699Z,76.30
2018-03-25T02:59:11.626Z,76.30
2018-03-25T03:01:39.147Z,76.40
2018-03-25T03:04:06.651Z,76.30
2018-03-25T03:06:34.111Z,76.30
2018-03-25T03:09:03.146Z,76.30
2018-03-25T03:11:31.195Z,76.40
2018-03-25T03:13:59.429Z,76.40
2018-03-25T03:16:27.989Z,76.40
2018-03-25T03:18:55.494Z,76.40
2018-03-25T03:21:24.283Z,76.90
2018-03-25T03:23:51.841Z,76.20
2018-03-25T03:26:20.061Z,76.20
2018-03-25T03:28:47.986Z,76.20
2018-03-25T03:31:15.852Z,76.60
2018-03-25T03:33:43.934Z,76.40
2018-03-25T03:36:11.389Z,76.20
2018-03-25T03:38:38.850Z,76.30
2018-03-25T03:41:06.307Z,76.30
2018-03-25T03:43:33.859Z,76.30
2018-03-25T03:46:01.319Z,76.30
2018-03-25T03:48:29.694Z,76.40
2018-03-25T03:50:57.782Z,76.60
2018-03-25T03:53:26.051Z,77.00
2018-03-25T03:55:54.010Z,76.90
2018-03-25T03:58:21.578Z,76.90
2018-03-25T04:00:49.271Z,77.30
2018-03-25T04:03:17.554Z,77.60
2018-03-25T04:05:46.364Z,77.50
2018-03-25T04:08:14.563Z,77.40
2018-03-25T04:10:42.034Z,77.10
2018-03-25T04:13:09.514Z,77.00
2018-03-25T04:15:37.733Z,76.80
2018-03-25T04:18:05.235Z,76.80
2018-03-25T04:20:32.794Z,76.70
2018-03-25T04:23:00.250Z,76.60
2018-03-25T04:25:27.714Z,76.50
2018-03-25T04:27:55.782Z,76.60
2018-03-25T04:30:23.933Z,76.50
2018-03-25T04:32:52.130Z,76.80
2018-03-25T04:35:20.406Z,76.70
2018-03-25T04:37:49.438Z,76.60
2018-03-25T04:40:18.288Z,76.40
2018-03-25T04:42:45.815Z,76.30
2018-03-25T04:45:13.446Z,76.30
2018-03-25T04:47:42.193Z,76.40
2018-03-25T04:50:09.663Z,76.40
2018-03-25T04:52:37.942Z,76.30
2018-03-25T04:55:06.174Z,76.30
2018-03-25T04:57:34.348Z,76.20
2018-03-25T05:00:02.506Z,76.20
2018-03-25T05:02:31.107Z,76.40
2018-03-25T05:04:58.572Z,76.50
2018-03-25T05:07:26.741Z,76.30
2018-03-25T05:09:54.998Z,76.40
2018-03-25T05:12:22.457Z,76.50
2018-03-25T05:14:50.359Z,76.60
2018-03-25T05:17:17.849Z,76.50
2018-03-25T05:19:45.298Z,76.40
2018-03-25T05:22:12.762Z,76.40
2018-03-25T05:24:40.860Z,76.40
2018-03-25T05:27:09.090Z,76.30
2018-03-25T05:29:37.414Z,76.30
2018-03-25T05:32:05.646Z,75.90
2018-03-25T05:34:33.106Z,75.80
2018-03-25T05:37:00.674Z,75.50
2018-03-25T05:39:28.625Z,75.40
2018-03-25T05:41:56.634Z,75.20
2018-03-25T05:44:24.107Z,74.80
2018-03-25T05:46:53.111Z,74.60
2018-03-25T05:49:21.334Z,74.20
2018-03-25T05:51:48.915Z,74.10
2018-03-25T05:54:16.690Z,73.80
2018-03-25T05:56:44.907Z,73.30
2018-03-25T05:59:12.411Z,73.30
2018-03-25T06:01:40.174Z,73.00
2018-03-25T06:04:08.250Z,72.70
2018-03-25T06:06:35.706Z,72.20
2018-03-25T06:09:03.158Z,71.80
2018-03-25T06:11:30.622Z,71.80
2018-03-25T06:13:58.931Z,71.50
2018-03-25T06:16:27.146Z,70.80
2018-03-25T06:18:54.630Z,70.80
2018-03-25T06:21:22.903Z,70.60
2018-03-25T06:23:51.126Z,70.40
2018-03-25T06:26:18.655Z,70.00
2018-03-25T06:28:46.626Z,69.70
2018-03-25T06:31:14.198Z,69.50
2018-03-25T06:33:42.574Z,68.70
2018-03-25T06:36:10.930Z,68.50
2018-03-25T06:38:39.478Z,67.90
2018-03-25T06:41:07.278Z,67.90
2018-03-25T06:43:35.161Z,67.70
2018-03-25T06:46:02.706Z,67.30
2018-03-25T06:48:30.171Z,66.90
2018-03-25T06:50:59.111Z,65.30
2018-03-25T06:53:27.293Z,65.20
2018-03-25T06:55:55.468Z,65.00
2018-03-25T06:58:22.931Z,64.80
2018-03-25T07:00:50.459Z,64.30
2018-03-25T07:03:18.679Z,63.00
2018-03-25T07:05:46.448Z,63.00
2018-03-25T07:08:14.752Z,63.10
2018-03-25T07:10:42.800Z,62.40
2018-03-25T07:13:10.462Z,61.90
2018-03-25T07:15:37.926Z,61.30
2018-03-25T07:18:05.378Z,60.40
2018-03-25T07:20:32.842Z,60.50
2018-03-25T07:23:00.921Z,60.70
2018-03-25T07:25:28.449Z,59.60
2018-03-25T07:27:56.354Z,61.00
2018-03-25T07:30:24.588Z,58.60
2018-03-25T07:32:52.090Z,58.50
2018-03-25T07:35:19.796Z,56.90
2018-03-25T07:37:48.254Z,56.00
2018-03-25T07:40:16.618Z,56.30
2018-03-25T07:42:45.035Z,54.40
2018-03-25T07:45:13.066Z,54.40
2018-03-25T07:47:41.032Z,53.40
2018-03-25T07:50:08.747Z,52.60
2018-03-25T07:52:36.162Z,51.80
2018-03-25T07:55:03.610Z,51.10
2018-03-25T07:57:31.060Z,50.60
2018-03-25T07:59:58.997Z,49.10
2018-03-25T08:02:26.950Z,50.10
2018-03-25T08:04:54.945Z,49.40
2018-03-25T08:07:23.015Z,48.00
2018-03-25T08:09:50.890Z,46.20
2018-03-25T08:12:18.758Z,45.40
2018-03-25T08:14:46.248Z,45.70
2018-03-25T08:17:13.704Z,44.60
2018-03-25T08:19:41.171Z,45.50
2018-03-25T08:22:09.114Z,47.10
2018-03-25T08:24:36.928Z,45.00
2018-03-25T08:27:05.178Z,43.70
2018-03-25T08:29:33.466Z,43.60
2018-03-25T08:32:01.434Z,43.00
2018-03-25T08:34:29.192Z,42.60
2018-03-25T08:36:56.878Z,42.80
2018-03-25T08:39:24.515Z,42.20
2018-03-25T08:41:51.958Z,41.90
2018-03-25T08:44:19.554Z,40.70
2018-03-25T08:46:47.938Z,40.80
2018-03-25T08:49:16.303Z,41.00
2018-03-25T08:51:43.799Z,40.20
2018-03-25T08:54:11.753Z,40.10
2018-03-25T08:56:40.058Z,38.90
2018-03-25T08:59:08.622Z,38.90
2018-03-25T09:01:36.487Z,39.20
2018-03-25T09:04:04.726Z,37.90
2018-03-25T09:06:32.179Z,37.90
2018-03-25T09:08:59.908Z,37.30
2018-03-25T09:11:28.092Z,36.90
2018-03-25T09:13:55.542Z,35.70
2018-03-25T09:16:23.342Z,35.70
2018-03-25T09:18:50.809Z,36.20
2018-03-25T09:21:19.305Z,35.80
2018-03-25T09:23:46.750Z,38.00
2018-03-25T09:26:15.126Z,38.60
2018-03-25T09:28:42.695Z,37.70
2018-03-25T09:31:10.147Z,37.80
2018-03-25T09:33:37.614Z,37.10
2018-03-25T09:36:05.063Z,34.90
2018-03-25T09:38:32.582Z,34.70
2018-03-25T09:41:00.032Z,34.90
2018-03-25T09:43:27.492Z,35.00
2018-03-25T09:45:54.953Z,36.00
2018-03-25T09:48:22.513Z,35.70
2018-03-25T09:50:50.422Z,35.70
2018-03-25T09:53:19.544Z,35.30
2018-03-25T09:55:48.298Z,35.20
2018-03-25T09:58:15.767Z,35.10
2018-03-25T10:00:43.227Z,34.70
2018-03-25T10:03:16.378Z,35.80
2018-03-25T10:05:44.445Z,36.00
2018-03-25T10:08:13.606Z,35.40
2018-03-25T10:10:41.863Z,34.60
2018-03-25T10:13:09.707Z,34.50
2018-03-25T10:15:38.474Z,34.70
2018-03-25T10:18:06.630Z,34.40
2018-03-25T10:20:34.638Z,34.60
2018-03-25T10:23:02.618Z,35.20
2018-03-25T10:25:30.922Z,35.10
2018-03-25T10:27:58.837Z,35.20
2018-03-25T10:30:27.336Z,35.10
2018-03-25T10:32:56.059Z,35.00
2018-03-25T10:35:24.285Z,35.00
2018-03-25T10:37:52.665Z,35.40
2018-03-25T10:40:20.171Z,35.90
2018-03-25T10:42:47.633Z,35.20
2018-03-25T10:45:15.085Z,34.90
2018-03-25T10:47:42.634Z,35.00
2018-03-25T10:50:10.090Z,36.30
2018-03-25T10:52:37.918Z,35.40
2018-03-25T10:55:05.462Z,35.70
2018-03-25T10:57:32.916Z,35.30
2018-03-25T11:00:01.726Z,35.80
2018-03-25T11:02:29.223Z,35.70
2018-03-25T11:04:56.686Z,35.90
2018-03-25T11:07:24.946Z,35.20
2018-03-25T11:09:52.830Z,36.00
2018-03-25T11:12:20.614Z,35.60
2018-03-25T11:14:49.358Z,36.20
2018-03-25T11:17:16.817Z,36.10
2018-03-25T11:19:44.273Z,35.80
2018-03-25T11:22:11.734Z,35.20
2018-03-25T11:24:39.230Z,35.50
2018-03-25T11:27:07.292Z,35.20
2018-03-25T11:29:34.757Z,35.50
2018-03-25T11:32:02.304Z,34.50
2018-03-25T11:34:30.453Z,34.80
2018-03-25T11:36:57.906Z,35.10
2018-03-25T11:39:26.438Z,35.20
2018-03-25T11:41:55.377Z,35.40
2018-03-25T11:44:23.594Z,35.20
2018-03-25T11:46:51.054Z,35.20
2018-03-25T11:49:18.510Z,34.20
2018-03-25T11:51:46.023Z,33.70
2018-03-25T11:54:14.452Z,33.40
2018-03-25T11:56:42.622Z,33.40
2018-03-25T11:59:10.943Z,34.00
2018-03-25T12:01:38.410Z,33.60
2018-03-25T12:04:06.035Z,33.00
2018-03-25T12:06:33.481Z,33.50
2018-03-25T12:09:01.916Z,34.00
2018-03-25T12:11:29.674Z,34.40
2018-03-25T12:13:57.818Z,34.40
2018-03-25T12:16:26.119Z,34.90
2018-03-25T12:18:53.536Z,34.90
2018-03-25T12:21:23.273Z,33.90
2018-03-25T12:23:52.123Z,32.80
2018-03-25T12:26:21.083Z,32.80
2018-03-25T12:28:48.523Z,34.40
2018-03-25T12:31:15.986Z,34.10
2018-03-25T12:33:43.788Z,36.10
2018-03-25T12:36:11.675Z,35.60
2018-03-25T12:38:39.963Z,34.30
2018-03-25T12:41:07.410Z,35.50
2018-03-25T12:43:34.898Z,37.30
2018-03-25T12:46:03.182Z,35.50
2018-03-25T12:48:30.642Z,35.50
2018-03-25T12:50:58.626Z,35.20
2018-03-25T12:53:27.615Z,35.50
2018-03-25T12:55:55.858Z,35.20
2018-03-25T12:58:23.822Z,35.70
2018-03-25T13:00:51.332Z,34.50
2018-03-25T13:03:19.458Z,34.30
2018-03-25T13:05:46.913Z,34.40
2018-03-25T13:08:15.146Z,35.90
2018-03-25T13:10:42.611Z,36.00
2018-03-25T13:13:11.553Z,35.50
2018-03-25T13:15:39.802Z,35.70
2018-03-25T13:18:07.987Z,35.60
2018-03-25T13:20:36.215Z,35.50
2018-03-25T13:23:03.719Z,35.50
2018-03-25T13:25:31.182Z,35.00
2018-03-25T13:27:58.634Z,34.60
2018-03-25T13:30:26.114Z,34.00
2018-03-25T13:32:55.242Z,34.90
2018-03-25T13:35:22.712Z,34.80
2018-03-25T13:37:50.215Z,35.10
2018-03-25T13:40:17.662Z,35.20
2018-03-25T13:42:45.667Z,34.60
2018-03-25T13:45:13.909Z,35.10
2018-03-25T13:47:41.366Z,35.10
2018-03-25T13:50:08.821Z,34.90
2018-03-25T13:52:36.389Z,35.10
2018-03-25T13:55:03.843Z,34.00
2018-03-25T13:57:31.324Z,35.10
2018-03-25T13:59:58.783Z,35.40
2018-03-25T14:02:27.005Z,35.80
2018-03-25T14:04:54.483Z,35.80
2018-03-25T14:07:21.938Z,34.70
2018-03-25T14:09:49.810Z,34.40
2018-03-25T14:12:17.397Z,34.50
2018-03-25T14:14:44.850Z,33.60
2018-03-25T14:17:12.330Z,33.90
2018-03-25T14:19:40.558Z,34.00
2018-03-25T14:22:08.135Z,33.90
2018-03-25T14:24:35.922Z,33.90
2018-03-25T14:27:04.157Z,34.60
2018-03-25T14:29:31.738Z,34.50
2018-03-25T14:32:00.113Z,35.30
2018-03-25T14:34:27.573Z,36.00
2018-03-25T14:36:55.022Z,35.30
2018-03-25T14:39:22.490Z,36.10
2018-03-25T14:41:49.947Z,35.20
2018-03-25T14:44:20.373Z,35.10
2018-03-25T14:46:48.650Z,35.10
2018-03-25T14:49:16.214Z,35.10
2018-03-25T14:51:43.693Z,34.30
2018-03-25T14:54:11.138Z,33.50
2018-03-25T14:56:38.602Z,33.60
2018-03-25T14:59:07.604Z,33.80
2018-03-25T15:01:35.141Z,34.20
2018-03-25T15:04:02.726Z,34.80
2018-03-25T15:06:31.991Z,34.90
2018-03-25T15:08:59.455Z,34.90
2018-03-25T15:11:26.924Z,33.90
2018-03-25T15:13:54.386Z,34.20
2018-03-25T15:16:21.942Z,35.10
2018-03-25T15:18:49.707Z,34.80
2018-03-25T15:21:17.656Z,34.50
2018-03-25T15:23:45.750Z,34.40
2018-03-25T15:26:14.547Z,34.90
2018-03-25T15:28:42.718Z,34.90
2018-03-25T15:31:11.118Z,36.00
2018-03-25T15:33:39.572Z,35.10
2018-03-25T15:36:07.026Z,35.00
2018-03-25T15:38:34.803Z,35.80
2018-03-25T15:41:03.066Z,37.40
2018-03-25T15:43:30.564Z,36.80
2018-03-25T15:45:58.798Z,36.60
2018-03-25T15:48:26.817Z,36.60
2018-03-25T15:50:55.812Z,36.80
2018-03-25T15:53:23.280Z,36.70
2018-03-25T15:55:51.199Z,36.30
2018-03-25T15:58:19.274Z,35.90
2018-03-25T16:00:47.245Z,36.50
2018-03-25T16:03:14.719Z,37.70
2018-03-25T16:05:42.938Z,37.50
2018-03-25T16:08:10.638Z,37.40
2018-03-25T16:10:38.099Z,37.10
2018-03-25T16:13:06.166Z,37.00
2018-03-25T16:15:34.346Z,38.10
2018-03-25T16:18:01.807Z,37.60
2018-03-25T16:20:29.270Z,38.60
2018-03-25T16:22:58.047Z,37.40
2018-03-25T16:25:25.623Z,38.10
2018-03-25T16:27:53.770Z,38.40
2018-03-25T16:30:21.346Z,38.80
2018-03-25T16:32:48.808Z,39.00
2018-03-25T16:35:17.078Z,37.30
2018-03-25T16:37:45.354Z,37.40
2018-03-25T16:40:12.807Z,37.50
2018-03-25T16:42:40.286Z,38.10
2018-03-25T16:45:08.244Z,38.00
2018-03-25T16:47:35.822Z,39.00
2018-03-25T16:50:04.371Z,39.00
2018-03-25T16:52:31.848Z,39.00
2018-03-25T16:55:00.282Z,39.30
2018-03-25T16:57:28.628Z,39.00
2018-03-25T16:59:57.806Z,38.40
2018-03-25T17:02:29.063Z,38.30
2018-03-25T17:04:56.525Z,39.30
2018-03-25T17:07:24.298Z,39.50
2018-03-25T17:09:52.543Z,40.30
2018-03-25T17:12:20.505Z,40.20
2018-03-25T17:14:47.962Z,40.60
2018-03-25T17:17:16.066Z,40.90
2018-03-25T17:19:43.519Z,41.10
2018-03-25T17:22:11.978Z,41.60
2018-03-25T17:24:39.803Z,41.60
2018-03-25T17:27:07.931Z,42.90
2018-03-25T17:29:35.377Z,43.00
2018-03-25T17:32:02.839Z,43.30
2018-03-25T17:34:30.669Z,43.60
2018-03-25T17:36:58.507Z,43.80
2018-03-25T17:39:26.734Z,44.00
2018-03-25T17:41:54.209Z,43.90
2018-03-25T17:44:21.730Z,44.50
2018-03-25T17:46:50.207Z,45.30
2018-03-25T17:49:17.670Z,46.00
2018-03-25T17:51:46.026Z,46.50
2018-03-25T17:54:15.093Z,47.30
2018-03-25T17:56:43.366Z,47.30
2018-03-25T17:59:11.230Z,47.70
2018-03-25T18:01:39.511Z,48.10
2018-03-25T18:04:06.970Z,48.10
2018-03-25T18:06:34.431Z,48.30
2018-03-25T18:09:01.927Z,48.70
2018-03-25T18:11:29.433Z,48.50
2018-03-25T18:13:57.642Z,49.10
2018-03-25T18:16:25.894Z,49.30
2018-03-25T18:18:53.350Z,49.30
2018-03-25T18:21:20.806Z,49.30
2018-03-25T18:23:48.278Z,49.30
2018-03-25T18:26:16.503Z,49.40
2018-03-25T18:28:44.003Z,49.50
2018-03-25T18:31:11.462Z,49.50
2018-03-25T18:33:39.435Z,49.60
2018-03-25T18:36:06.906Z,49.80
2018-03-25T18:38:35.403Z,50.80
2018-03-25T18:41:03.642Z,50.30
2018-03-25T18:43:31.312Z,50.30
2018-03-25T18:45:58.783Z,50.80
2018-03-25T18:48:26.234Z,50.80
2018-03-25T18:50:53.711Z,51.00
2018-03-25T18:53:22.634Z,51.80
2018-03-25T18:55:50.664Z,51.70
2018-03-25T18:58:18.131Z,52.20
2018-03-25T19:00:46.839Z,52.70
2018-03-25T19:03:14.352Z,52.70
2018-03-25T19:05:41.810Z,53.30
2018-03-25T19:08:10.363Z,54.40
2018-03-25T19:10:37.810Z,54.90
2018-03-25T19:13:05.274Z,55.80
2018-03-25T19:15:33.910Z,56.20
2018-03-25T19:18:02.286Z,56.80
2018-03-25T19:20:29.754Z,57.30
2018-03-25T19:22:57.980Z,58.00
2018-03-25T19:25:25.447Z,58.00
2018-03-25T19:27:55.242Z,58.00
2018-03-25T19:30:22.712Z,58.30
2018-03-25T19:32:50.575Z,58.40
2018-03-25T19:35:18.741Z,58.50
2018-03-25T19:37:46.242Z,59.00
2018-03-25T19:40:14.317Z,59.70
2018-03-25T19:42:42.239Z,60.10
2018-03-25T19:45:11.370Z,61.00
2018-03-25T19:47:38.838Z,60.40
2018-03-25T19:50:07.380Z,61.00
2018-03-25T19:52:36.784Z,61.10
2018-03-25T19:55:04.239Z,61.60
2018-03-25T19:57:31.691Z,61.80
2018-03-25T20:00:00.238Z,62.20
2018-03-25T20:02:28.468Z,62.70
2018-03-25T20:04:55.970Z,62.30
2018-03-25T20:07:23.428Z,62.70
2018-03-25T20:09:51.369Z,64.00
2018-03-25T20:12:18.835Z,63.90
2018-03-25T20:14:46.288Z,64.10
2018-03-25T20:17:14.005Z,64.20
2018-03-25T20:19:41.473Z,64.40
2018-03-25T20:22:09.390Z,65.00
2018-03-25T20:24:37.062Z,64.90
2018-03-25T20:27:04.572Z,64.70
2018-03-25T20:29:32.073Z,65.10
2018-03-25T20:31:59.530Z,64.30
2018-03-25T20:34:27.097Z,64.80
2018-03-25T20:36:55.316Z,65.20
2018-03-25T20:39:23.061Z,65.10
2018-03-25T20:41:51.922Z,65.70
2018-03-25T20:44:20.822Z,65.90
2018-03-25T20:46:49.054Z,65.60
2018-03-25T20:49:16.508Z,66.10
2018-03-25T20:51:43.990Z,66.20
2018-03-25T20:54:12.195Z,66.90
2018-03-25T20:56:40.734Z,67.30
2018-03-25T20:59:08.190Z,67.30
2018-03-25T21:01:36.342Z,67.50
2018-03-25T21:04:03.882Z,68.00
2018-03-25T21:06:32.751Z,67.90
2018-03-25T21:09:00.971Z,68.00
2018-03-25T21:11:29.302Z,68.00
2018-03-25T21:13:58.047Z,67.90
2018-03-25T21:16:25.619Z,67.90
2018-03-25T21:18:53.069Z,68.10
2018-03-25T21:21:20.538Z,68.30
2018-03-25T21:23:48.014Z,68.20
2018-03-25T21:26:15.688Z,68.30
2018-03-25T21:28:43.154Z,68.30
2018-03-25T21:31:11.703Z,69.60
2018-03-25T21:33:39.195Z,68.70
2018-03-25T21:36:07.422Z,69.00
2018-03-25T21:38:35.782Z,68.90
2018-03-25T21:41:03.918Z,69.10
2018-03-25T21:43:33.098Z,69.50
2018-03-25T21:46:00.679Z,69.50
2018-03-25T21:48:28.894Z,69.90
2018-03-25T21:50:57.284Z,70.10
2018-03-25T21:53:25.703Z,70.20
2018-03-25T21:55:53.618Z,70.10
2018-03-25T21:58:21.500Z,70.10
2018-03-25T22:00:49.575Z,70.00
2018-03-25T22:03:17.083Z,69.90
2018-03-25T22:05:45.713Z,69.80
2018-03-25T22:08:13.231Z,70.00
2018-03-25T22:10:41.480Z,71.00
2018-03-25T22:13:08.938Z,70.10
2018-03-25T22:15:36.967Z,70.20
2018-03-25T22:18:04.838Z,70.20
2018-03-25T22:20:32.305Z,70.00
2018-03-25T22:22:59.767Z,69.50
2018-03-25T22:25:27.238Z,69.30
2018-03-25T22:27:54.702Z,69.20
2018-03-25T22:30:22.165Z,69.00
2018-03-25T22:32:50.743Z,68.90
2018-03-25T22:35:18.214Z,68.60
2018-03-25T22:37:45.692Z,68.60
2018-03-25T22:40:14.948Z,68.40
2018-03-25T22:42:43.067Z,68.40
2018-03-25T22:45:12.351Z,67.90
2018-03-25T22:47:41.008Z,67.90
2018-03-25T22:50:08.467Z,67.70
2018-03-25T22:52:35.922Z,67.50
2018-03-25T22:55:03.387Z,67.50
2018-03-25T22:57:30.862Z,67.30
2018-03-25T22:59:58.338Z,67.10
2018-03-25T23:02:26.561Z,67.20
2018-03-25T23:04:55.254Z,67.20
2018-03-25T23:07:23.311Z,67.00
2018-03-25T23:09:50.771Z,66.90
2018-03-25T23:12:18.243Z,66.60
2018-03-25T23:14:45.914Z,66.70
2018-03-25T23:17:13.382Z,66.40
2018-03-25T23:19:40.838Z,66.40
2018-03-25T23:22:08.326Z,67.10
2018-03-25T23:24:35.850Z,67.40
2018-03-25T23:27:04.126Z,67.60
2018-03-25T23:29:31.596Z,68.10
2018-03-25T23:32:00.064Z,68.30
2018-03-25T23:34:28.074Z,68.50
2018-03-25T23:36:55.542Z,68.60
2018-03-25T23:39:24.457Z,69.40
2018-03-25T23:41:52.414Z,68.70
2018-03-25T23:44:20.644Z,68.70
2018-03-25T23:46:48.133Z,68.60
2018-03-25T23:49:17.170Z,68.30
2018-03-25T23:51:44.691Z,68.30
2018-03-25T23:54:13.526Z,68.50
2018-03-25T23:56:40.993Z,68.50
2018-03-25T23:59:09.094Z,68.50
